Time;durP1;ratioP1;P1;durP2;ratioP2;P2;SDS_P1;SDS_P2;PMS_P1;PMS_P2;Temp;Humidity;BMP_temperature;BMP_pressure;BME280_temperature;BME280_humidity;BME280_pressure;Samples;Min_cycle;Max_cycle;Signal;HPM_P1;HPM_P2
2023/07/26 00:00:42;;;;;;;5.47;1.17;;;;;;;13.99;100.00;100653.09;6275164;28;20052;-76
2023/07/26 00:03:43;;;;;;;2.78;1.30;;;;;;;13.88;100.00;100650.34;6280145;28;20052;-76
2023/07/26 00:06:45;;;;;;;3.78;1.40;;;;;;;13.85;100.00;100654.06;6279513;28;20123;-76
2023/07/26 00:09:46;;;;;;;3.03;1.50;;;;;;;13.87;100.00;100653.94;6284654;28;20053;-76
2023/07/26 00:12:49;;;;;;;3.85;1.25;;;;;;;13.85;100.00;100658.47;6276192;28;20045;-76
2023/07/26 00:15:50;;;;;;;4.35;1.30;;;;;;;13.83;100.00;100655.94;6284425;28;20059;-76
2023/07/26 00:18:52;;;;;;;3.33;1.00;;;;;;;13.81;100.00;100664.94;6279511;28;20200;-76
2023/07/26 00:21:53;;;;;;;3.55;1.50;;;;;;;13.74;100.00;100659.22;6284343;28;20049;-76
2023/07/26 00:24:55;;;;;;;1.70;1.30;;;;;;;13.72;100.00;100663.75;6284024;28;20049;-76
2023/07/26 00:27:57;;;;;;;2.53;1.42;;;;;;;13.72;100.00;100671.69;6284395;28;20449;-76
2023/07/26 00:30:59;;;;;;;1.40;1.13;;;;;;;13.57;100.00;100662.13;6275816;28;20053;-76
2023/07/26 00:34:00;;;;;;;2.15;1.55;;;;;;;13.62;100.00;100671.44;6275719;28;20048;-76
2023/07/26 00:37:03;;;;;;;5.53;1.35;;;;;;;13.65;100.00;100673.88;6283971;28;20052;-76
2023/07/26 00:40:05;;;;;;;3.47;1.30;;;;;;;13.66;100.00;100682.66;6284162;28;20055;-76
2023/07/26 00:43:08;;;;;;;2.30;1.55;;;;;;;13.38;100.00;100675.72;6283432;28;20049;-77
2023/07/26 00:46:10;;;;;;;1.90;1.48;;;;;;;13.40;100.00;100679.97;6275765;28;20441;-76
2023/07/26 00:49:12;;;;;;;1.75;1.35;;;;;;;13.32;100.00;100669.06;6275587;28;20049;-77
2023/07/26 00:52:14;;;;;;;4.07;1.30;;;;;;;13.41;100.00;100672.88;6275697;28;20053;-76
2023/07/26 00:55:16;;;;;;;5.13;1.30;;;;;;;13.27;100.00;100676.44;6267161;28;20067;-76
2023/07/26 00:58:19;;;;;;;3.70;1.00;;;;;;;13.38;100.00;100681.00;6275514;28;20163;-77
2023/07/26 01:01:21;;;;;;;3.40;1.45;;;;;;;13.28;100.00;100683.41;6275294;28;20365;-76
2023/07/26 01:04:22;;;;;;;3.78;1.60;;;;;;;13.35;100.00;100684.72;6275875;28;20187;-76
2023/07/26 01:07:28;;;;;;;8.50;1.42;;;;;;;13.27;100.00;100688.78;6282596;28;20052;-76
2023/07/26 01:10:36;;;;;;;2.15;1.17;;;;;;;13.18;100.00;100685.78;6275123;28;20053;-76
2023/07/26 01:13:49;;;;;;;2.13;1.55;;;;;;;13.21;100.00;100690.81;6283317;28;20052;-77
2023/07/26 01:16:51;;;;;;;1.90;1.10;;;;;;;13.21;100.00;100690.81;6274862;28;20048;-77
2023/07/26 01:19:52;;;;;;;2.72;1.50;;;;;;;13.09;100.00;100689.00;6283559;28;20052;-76
2023/07/26 01:22:55;;;;;;;3.33;1.45;;;;;;;13.16;100.00;100692.09;6279874;28;20053;-76
2023/07/26 01:25:56;;;;;;;6.53;1.50;;;;;;;13.30;100.00;100691.22;6277842;28;20053;-76
2023/07/26 01:28:58;;;;;;;1.88;1.10;;;;;;;13.26;100.00;100687.91;6283166;28;20053;-78
2023/07/26 01:32:00;;;;;;;4.03;1.58;;;;;;;13.15;100.00;100688.59;6283228;28;20049;-76
2023/07/26 01:35:01;;;;;;;2.20;1.42;;;;;;;13.24;100.00;100692.47;6279230;28;20056;-76
2023/07/26 01:38:04;;;;;;;4.57;1.60;;;;;;;13.14;100.00;100689.56;6274920;28;20059;-76
2023/07/26 01:41:06;;;;;;;5.20;1.73;;;;;;;13.24;100.00;100692.47;6283089;28;20599;-76
2023/07/26 01:44:08;;;;;;;2.17;1.17;;;;;;;13.18;100.00;100693.69;6282647;28;20044;-77
2023/07/26 01:47:09;;;;;;;2.63;1.50;;;;;;;13.00;100.00;100691.41;6282283;28;20155;-77
2023/07/26 01:50:11;;;;;;;2.92;1.33;;;;;;;13.08;100.00;100691.72;6275351;28;20049;-76
2023/07/26 01:53:14;;;;;;;1.77;1.15;;;;;;;13.14;100.00;100699.25;6282067;28;20377;-76
2023/07/26 01:56:15;;;;;;;3.65;1.40;;;;;;;13.03;100.00;100691.19;6274599;28;20049;-76
2023/07/26 01:59:16;;;;;;;5.50;1.50;;;;;;;13.13;100.00;100689.66;6274757;28;20060;-77
2023/07/26 02:02:18;;;;;;;2.33;1.27;;;;;;;13.04;100.00;100690.25;6269865;28;20064;-77
2023/07/26 02:05:19;;;;;;;7.28;1.83;;;;;;;12.87;100.00;100693.97;6274452;28;20053;-77
2023/07/26 02:08:22;;;;;;;3.53;1.60;;;;;;;12.98;100.00;100695.91;6282620;28;20067;-76
2023/07/26 02:11:23;;;;;;;7.32;2.30;;;;;;;12.91;100.00;100698.09;6276585;28;20049;-76
2023/07/26 02:14:25;;;;;;;3.58;1.65;;;;;;;12.94;100.00;100696.13;6274251;28;20057;-76
2023/07/26 02:17:26;;;;;;;1.75;1.10;;;;;;;12.98;100.00;100693.28;6274138;28;20056;-76
2023/07/26 02:20:28;;;;;;;5.47;1.45;;;;;;;12.92;100.00;100697.16;6274435;28;20123;-77
2023/07/26 02:23:31;;;;;;;4.05;1.67;;;;;;;12.98;100.00;100691.47;6278301;28;20130;-76
2023/07/26 02:26:32;;;;;;;6.63;1.73;;;;;;;12.75;100.00;100692.09;6274292;28;20049;-76
2023/07/26 02:29:34;;;;;;;3.42;1.50;;;;;;;12.77;100.00;100693.72;6283963;28;20344;-77
2023/07/26 02:32:35;;;;;;;4.45;1.52;;;;;;;12.90;100.00;100692.00;6286721;28;20463;-77
2023/07/26 02:35:37;;;;;;;1.30;1.13;;;;;;;12.96;100.00;100698.66;6286887;28;20060;-76
2023/07/26 02:38:40;;;;;;;2.22;1.45;;;;;;;13.01;100.00;100695.72;6286968;28;20050;-76
2023/07/26 02:41:41;;;;;;;2.85;1.50;;;;;;;12.99;100.00;100693.19;6286411;28;20041;-76
2023/07/26 02:44:42;;;;;;;3.30;1.60;;;;;;;12.90;100.00;100704.34;6272422;28;20048;-77
2023/07/26 02:47:44;;;;;;;1.75;1.55;;;;;;;12.90;100.00;100699.91;6286539;28;20049;-76
2023/07/26 02:50:45;;;;;;;5.50;1.90;;;;;;;12.86;100.00;100703.69;6282270;28;20044;-77
2023/07/26 02:53:48;;;;;;;2.75;1.90;;;;;;;12.90;100.00;100699.06;6281212;28;20045;-77
2023/07/26 02:56:49;;;;;;;3.70;1.58;;;;;;;12.95;100.00;100700.44;6286463;28;20437;-76
2023/07/26 02:59:51;;;;;;;4.47;1.65;;;;;;;12.95;100.00;100699.59;6282732;28;20048;-76
2023/07/26 03:02:52;;;;;;;2.85;1.63;;;;;;;12.94;100.00;100708.44;6281371;28;20053;-76
2023/07/26 03:05:54;;;;;;;3.63;1.55;;;;;;;12.80;100.00;100708.47;6286212;28;20060;-77
2023/07/26 03:08:56;;;;;;;4.13;1.95;;;;;;;12.92;100.00;100705.06;6278038;28;20041;-77
2023/07/26 03:11:58;;;;;;;5.40;2.10;;;;;;;12.81;100.00;100699.63;6277695;28;20060;-76
2023/07/26 03:14:59;;;;;;;3.85;2.35;;;;;;;12.74;100.00;100708.88;6277861;28;20056;-76
2023/07/26 03:18:01;;;;;;;2.05;1.48;;;;;;;12.90;100.00;100702.53;6283593;28;20056;-75
2023/07/26 03:21:03;;;;;;;3.63;1.88;;;;;;;12.82;100.00;100711.88;6279441;28;20512;-76
2023/07/26 03:24:06;;;;;;;3.75;2.00;;;;;;;12.71;100.00;100715.16;6292008;28;20054;-77
2023/07/26 03:27:08;;;;;;;2.28;1.60;;;;;;;12.94;100.00;100708.44;6285579;28;20432;-76
2023/07/26 03:30:10;;;;;;;2.85;1.60;;;;;;;13.07;100.00;100711.16;6278536;28;20049;-76
2023/07/26 03:33:11;;;;;;;6.72;2.00;;;;;;;12.95;100.00;100708.38;6276952;28;20048;-76
2023/07/26 03:36:13;;;;;;;3.28;1.70;;;;;;;13.02;100.00;100705.31;6277202;28;20057;-76
2023/07/26 03:39:16;;;;;;;3.78;1.92;;;;;;;12.98;100.00;100711.72;6277038;28;20048;-76
2023/07/26 03:42:17;;;;;;;9.15;1.77;;;;;;;12.90;100.00;100710.44;6285156;28;20053;-77
2023/07/26 03:45:18;;;;;;;8.35;2.72;;;;;;;12.87;100.00;100713.28;6249846;28;20056;-76
2023/07/26 03:48:20;;;;;;;3.95;1.90;;;;;;;12.81;100.00;100708.41;6256886;28;20048;-77
2023/07/26 03:51:21;;;;;;;4.65;1.70;;;;;;;12.82;100.00;100717.16;6266953;28;20052;-77
2023/07/26 03:54:24;;;;;;;7.38;1.90;;;;;;;12.84;100.00;100716.09;6273759;28;20060;-77
2023/07/26 03:57:26;;;;;;;3.60;1.77;;;;;;;12.94;100.00;100716.34;6272313;28;20048;-76
2023/07/26 04:00:27;;;;;;;5.63;1.77;;;;;;;12.72;100.00;100719.53;6267172;28;20475;-77
2023/07/26 04:03:28;;;;;;;5.28;2.20;;;;;;;12.70;100.00;100724.03;6269020;28;20052;-77
2023/07/26 04:06:30;;;;;;;4.15;2.00;;;;;;;12.57;100.00;100728.38;6272442;28;20342;-77
2023/07/26 04:09:34;;;;;;;5.18;2.03;;;;;;;12.61;100.00;100727.25;6271702;28;20052;-77
2023/07/26 04:12:35;;;;;;;3.13;1.65;;;;;;;12.75;100.00;100726.38;6275313;28;20057;-77
2023/07/26 04:15:37;;;;;;;3.45;1.90;;;;;;;12.74;100.00;100732.59;6270920;28;20468;-77
2023/07/26 04:18:38;;;;;;;5.03;2.15;;;;;;;12.86;100.00;100737.97;6269086;28;20052;-77
2023/07/26 04:21:39;;;;;;;6.18;2.22;;;;;;;12.86;100.00;100735.31;6266255;28;20057;-77
2023/07/26 04:24:46;;;;;;;6.40;2.20;;;;;;;12.85;100.00;100741.56;6269147;28;20373;-77
2023/07/26 04:27:47;;;;;;;5.05;1.95;;;;;;;12.96;100.00;100738.22;6271250;28;20051;-77
2023/07/26 04:30:48;;;;;;;3.63;1.95;;;;;;;12.96;100.00;100738.22;6255663;28;20041;-77
2023/07/26 04:33:50;;;;;;;3.13;1.85;;;;;;;12.91;100.00;100737.66;6254907;28;20205;-77
2023/07/26 04:36:51;;;;;;;5.00;2.65;;;;;;;12.89;100.00;100742.19;6254152;28;20585;-78
2023/07/26 04:39:54;;;;;;;3.20;2.08;;;;;;;12.94;100.00;100734.81;6265456;28;20056;-77
2023/07/26 04:42:55;;;;;;;2.20;1.60;;;;;;;13.05;100.00;100740.28;6261154;28;20053;-76
2023/07/26 04:45:57;;;;;;;4.20;2.10;;;;;;;12.97;100.00;100739.06;6275638;28;20455;-77
2023/07/26 04:48:58;;;;;;;3.85;1.98;;;;;;;13.08;100.00;100744.50;6281117;28;20048;-77
2023/07/26 04:51:59;;;;;;;3.47;1.98;;;;;;;13.16;100.00;100740.41;6277845;28;20053;-77
2023/07/26 04:55:02;;;;;;;3.47;1.98;;;;;;;13.00;100.00;100752.91;6275639;28;20055;-77
2023/07/26 04:58:04;;;;;;;4.60;2.10;;;;;;;13.07;100.00;100750.72;6289732;28;20044;-75
2023/07/26 05:01:05;;;;;;;2.85;1.67;;;;;;;13.17;100.00;100747.41;6285620;28;20055;-76
2023/07/26 05:04:06;;;;;;;3.38;2.08;;;;;;;13.18;100.00;100751.75;6289774;28;20052;-76
2023/07/26 05:07:08;;;;;;;4.30;2.00;;;;;;;13.23;100.00;100761.19;6285116;28;20049;-77
2023/07/26 05:10:11;;;;;;;2.95;1.90;;;;;;;13.11;100.00;100758.34;6290440;28;20045;-76
2023/07/26 05:13:12;;;;;;;4.65;2.15;;;;;;;12.91;100.00;100774.59;6284086;28;20045;-77
2023/07/26 05:16:14;;;;;;;5.60;2.88;;;;;;;13.03;100.00;100775.59;6290827;28;20048;-77
2023/07/26 05:19:15;;;;;;;4.32;1.90;;;;;;;13.05;100.00;100781.66;6283943;28;20052;-76
2023/07/26 05:22:16;;;;;;;3.00;1.65;;;;;;;13.00;100.00;100781.09;6290837;28;20048;-77
2023/07/26 05:25:20;;;;;;;7.78;2.97;;;;;;;13.01;100.00;100783.63;6283461;28;20052;-77
2023/07/26 05:28:21;;;;;;;3.00;1.98;;;;;;;13.01;100.00;100793.34;6275375;28;20052;-77
2023/07/26 05:31:23;;;;;;;4.30;2.28;;;;;;;12.95;100.00;100786.66;6275330;28;20045;-77
2023/07/26 05:34:24;;;;;;;5.28;2.35;;;;;;;12.99;100.00;100792.56;6290601;28;20359;-77
2023/07/26 05:37:26;;;;;;;3.58;1.90;;;;;;;12.97;100.00;100795.31;6283914;28;20052;-77
2023/07/26 05:40:28;;;;;;;5.18;2.13;;;;;;;13.05;100.00;100797.47;6290401;28;20445;-77
2023/07/26 05:43:30;;;;;;;4.10;2.03;;;;;;;13.12;100.00;100793.50;6275680;28;20041;-77
2023/07/26 05:46:31;;;;;;;3.53;2.22;;;;;;;13.19;100.00;100793.00;6290075;28;20360;-77
2023/07/26 05:49:33;;;;;;;3.13;1.98;;;;;;;13.20;100.00;100794.69;6284898;28;20041;-75
2023/07/26 05:52:34;;;;;;;2.35;1.90;;;;;;;13.17;100.00;100801.97;6289162;28;20044;-77
2023/07/26 05:55:37;;;;;;;2.28;1.88;;;;;;;13.25;100.00;100802.34;6285040;28;20357;-76
2023/07/26 05:58:38;;;;;;;3.75;2.30;;;;;;;13.24;100.00;100797.19;6281929;28;20044;-76
2023/07/26 06:01:40;;;;;;;3.55;2.28;;;;;;;13.23;100.00;100801.63;6278120;28;20070;-77
2023/07/26 06:04:41;;;;;;;7.50;2.60;;;;;;;13.21;100.00;100796.38;6275632;28;20057;-76
2023/07/26 06:07:42;;;;;;;4.63;2.33;;;;;;;13.20;100.00;100805.25;6280373;28;20047;-77
2023/07/26 06:10:45;;;;;;;2.83;2.08;;;;;;;13.22;100.00;100799.94;6279062;28;20052;-76
2023/07/26 06:13:47;;;;;;;3.67;2.58;;;;;;;13.37;100.00;100798.94;6278724;28;20052;-77
2023/07/26 06:16:48;;;;;;;5.60;2.40;;;;;;;13.39;100.00;100794.41;6278982;28;20056;-77
2023/07/26 06:19:49;;;;;;;3.13;2.03;;;;;;;13.45;100.00;100795.81;6278750;28;20037;-77
2023/07/26 06:22:51;;;;;;;5.03;2.30;;;;;;;13.62;100.00;100797.34;6278697;28;20056;-77
2023/07/26 06:25:54;;;;;;;4.88;2.38;;;;;;;13.59;100.00;100800.22;6278875;28;20052;-76
2023/07/26 06:28:55;;;;;;;8.43;2.55;;;;;;;13.60;100.00;100799.25;6287198;28;20048;-75
2023/07/26 06:31:56;;;;;;;4.95;2.42;;;;;;;13.68;100.00;100799.59;6278643;28;20045;-76
2023/07/26 06:34:58;;;;;;;5.28;2.47;;;;;;;13.61;100.00;100808.88;6278648;28;20069;-77
2023/07/26 06:37:59;;;;;;;3.40;2.65;;;;;;;13.62;100.00;100816.66;6286629;28;20429;-76
2023/07/26 06:41:02;;;;;;;5.35;1.85;;;;;;;13.70;100.00;100822.31;6278663;28;20048;-77
2023/07/26 06:44:03;;;;;;;6.88;2.10;;;;;;;13.67;100.00;100819.00;6278085;28;20349;-77
2023/07/26 06:47:06;;;;;;;4.25;2.03;;;;;;;13.70;100.00;100814.38;6286939;28;20060;-76
2023/07/26 06:50:08;;;;;;;4.30;2.50;;;;;;;13.85;100.00;100820.47;6278421;28;20064;-76
2023/07/26 06:53:10;;;;;;;4.47;2.25;;;;;;;13.87;100.00;100820.38;6284413;28;20382;-78
2023/07/26 06:56:13;;;;;;;2.78;1.88;;;;;;;13.93;100.00;100815.50;6280027;28;20041;-77
2023/07/26 06:59:15;;;;;;;3.65;2.45;;;;;;;13.98;100.00;100809.94;6293551;28;20060;-76
2023/07/26 07:02:17;;;;;;;4.88;2.40;;;;;;;14.04;100.00;100806.06;6286330;28;20055;-77
2023/07/26 07:05:18;;;;;;;4.15;2.17;;;;;;;14.02;100.00;100813.22;6277960;28;20433;-77
2023/07/26 07:08:20;;;;;;;5.75;2.75;;;;;;;13.84;100.00;100816.13;6277607;28;20468;-77
2023/07/26 07:11:23;;;;;;;2.55;1.98;;;;;;;13.91;100.00;100812.13;6277185;28;20041;-76
2023/07/26 07:14:24;;;;;;;4.03;2.10;;;;;;;14.03;100.00;100802.53;6275003;28;20053;-77
2023/07/26 07:17:25;;;;;;;3.90;1.88;;;;;;;14.11;100.00;100812.59;6279380;28;20053;-77
2023/07/26 07:20:27;;;;;;;4.70;2.30;;;;;;;14.18;100.00;100804.16;6285439;28;20059;-76
2023/07/26 07:23:29;;;;;;;6.57;1.92;;;;;;;14.29;100.00;100813.16;6277394;28;20056;-77
2023/07/26 07:26:32;;;;;;;10.57;1.83;;;;;;;14.27;100.00;100815.06;6285814;28;20045;-78
2023/07/26 07:29:33;;;;;;;5.30;2.13;;;;;;;14.21;100.00;100813.66;6285958;28;20045;-78
2023/07/26 07:32:35;;;;;;;6.68;1.90;;;;;;;14.29;100.00;100816.66;6276025;28;20048;-75
2023/07/26 07:35:36;;;;;;;2.67;1.92;;;;;;;14.39;100.00;100820.34;6271979;28;20050;-77
2023/07/26 07:38:38;;;;;;;3.65;1.65;;;;;;;14.52;100.00;100820.41;6276818;28;20353;-77
2023/07/26 07:41:41;;;;;;;2.60;1.80;;;;;;;14.59;100.00;100819.03;6281863;28;20053;-76
2023/07/26 07:44:42;;;;;;;4.35;2.00;;;;;;;14.69;100.00;100814.78;6262929;28;20056;-77
2023/07/26 07:47:43;;;;;;;3.90;2.10;;;;;;;14.74;100.00;100816.28;6276741;28;20064;-80
2023/07/26 07:50:45;;;;;;;4.95;1.70;;;;;;;14.84;100.00;100815.53;6273697;28;20049;-77
2023/07/26 07:53:48;;;;;;;3.50;1.90;;;;;;;14.95;100.00;100812.97;6272011;28;20131;-78
2023/07/26 07:56:51;;;;;;;4.03;1.48;;;;;;;15.07;100.00;100821.00;6271862;28;20429;-77
2023/07/26 07:59:52;;;;;;;2.35;1.42;;;;;;;15.16;100.00;100823.81;6269655;28;20132;-77
2023/07/26 08:02:53;;;;;;;3.90;1.38;;;;;;;15.17;100.00;100822.91;6268741;28;20049;-77
2023/07/26 08:05:55;;;;;;;2.97;1.38;;;;;;;15.14;100.00;100819.63;6267271;28;20057;-76
2023/07/26 08:08:57;;;;;;;2.83;1.38;;;;;;;15.13;100.00;100815.28;6267744;28;20453;-76
2023/07/26 08:12:00;;;;;;;1.88;1.17;;;;;;;15.17;100.00;100817.59;6272412;28;20045;-76
2023/07/26 08:15:02;;;;;;;3.17;1.45;;;;;;;15.28;100.00;100826.56;6273866;28;20428;-74
2023/07/26 08:18:03;;;;;;;2.78;0.98;;;;;;;15.42;100.00;100832.56;6281596;28;20045;-77
2023/07/26 08:21:05;;;;;;;1.55;1.27;;;;;;;15.46;100.00;100831.38;6284607;28;20468;-79
2023/07/26 08:24:06;;;;;;;1.80;1.13;;;;;;;15.57;100.00;100817.34;6282247;28;20460;-77
2023/07/26 08:27:09;;;;;;;2.03;1.20;;;;;;;15.70;100.00;100814.69;6269017;28;20053;-79
2023/07/26 08:30:11;;;;;;;1.92;1.10;;;;;;;15.83;100.00;100806.69;6276171;28;20064;-78
2023/07/26 08:33:13;;;;;;;2.22;1.20;;;;;;;15.78;100.00;100807.00;6270984;28;20059;-74
2023/07/26 08:36:14;;;;;;;1.50;1.30;;;;;;;15.71;100.00;100814.59;6282944;28;20059;-77
2023/07/26 08:39:16;;;;;;;2.03;1.05;;;;;;;15.93;100.00;100816.47;6276715;28;20429;-78
2023/07/26 08:42:18;;;;;;;1.38;1.05;;;;;;;16.05;100.00;100812.06;6275489;28;20045;-78
2023/07/26 08:45:20;;;;;;;1.83;1.23;;;;;;;16.11;100.00;100813.41;6275454;28;20120;-77
2023/07/26 08:48:22;;;;;;;1.83;0.90;;;;;;;16.08;100.00;100808.31;6275525;28;20055;-78
2023/07/26 08:51:24;;;;;;;2.75;1.73;;;;;;;16.00;100.00;100816.03;6280825;28;20045;-77
2023/07/26 08:54:26;;;;;;;1.88;1.10;;;;;;;15.89;100.00;100815.00;6267387;28;20048;-80
2023/07/26 08:57:29;;;;;;;3.05;1.20;;;;;;;15.87;100.00;100813.44;6275104;28;20352;-77
2023/07/26 09:00:31;;;;;;;4.00;1.13;;;;;;;15.87;100.00;100816.94;6274971;28;20052;-77
2023/07/26 09:03:33;;;;;;;2.47;0.90;;;;;;;15.86;100.00;100814.41;6274848;28;20052;-76
2023/07/26 09:06:39;;;;;;;1.38;0.82;;;;;;;15.82;100.00;100812.94;6274878;28;20048;-76
2023/07/26 09:09:40;;;;;;;0.93;0.90;;;;;;;15.83;100.00;100819.94;6272734;28;20053;-76
2023/07/26 09:12:43;;;;;;;4.40;1.05;;;;;;;15.73;100.00;100820.59;6274457;28;20048;-76
2023/07/26 09:15:45;;;;;;;2.40;1.30;;;;;;;15.54;100.00;100819.41;6269565;28;21643;-77
2023/07/26 09:18:57;;;;;;;1.63;1.00;;;;;;;15.41;100.00;100819.44;6265523;28;20041;-79
2023/07/26 09:22:00;;;;;;;1.80;1.00;;;;;;;15.36;100.00;100816.28;6274311;28;20110;-76
2023/07/26 09:25:02;;;;;;;2.80;1.20;;;;;;;15.38;100.00;100817.84;6274513;28;20056;-76
2023/07/26 09:28:07;;;;;;;3.38;1.40;;;;;;;15.42;100.00;100808.72;6274909;28;20048;-75
2023/07/26 09:31:08;;;;;;;2.97;1.20;;;;;;;15.45;100.00;100807.66;6268639;28;20052;-73
2023/07/26 09:34:12;;;;;;;2.45;1.10;;;;;;;15.49;100.00;100817.09;6271061;28;20483;-73
2023/07/26 09:37:20;;;;;;;2.72;1.30;;;;;;;15.53;100.00;100813.22;6264585;28;20045;-75
2023/07/26 09:40:32;;;;;;;1.10;1.00;;;;;;;15.61;100.00;100815.31;6279039;28;20319;-76
2023/07/26 09:43:34;;;;;;;2.25;1.00;;;;;;;15.65;100.00;100811.53;6271663;28;20049;-79
2023/07/26 09:46:49;;;;;;;3.25;1.50;;;;;;;15.74;100.00;100808.19;6278419;28;20449;-75
2023/07/26 09:49:52;;;;;;;2.85;1.33;;;;;;;15.83;100.00;100807.50;6279614;28;20072;-77
2023/07/26 09:52:54;;;;;;;3.53;1.27;;;;;;;15.86;100.00;100817.06;6279177;28;20380;-78
2023/07/26 09:55:56;;;;;;;1.30;0.88;;;;;;;15.57;100.00;100819.16;6279703;28;20084;-77
2023/07/26 09:58:59;;;;;;;1.50;0.80;;;;;;;15.53;100.00;100815.88;6279342;28;20382;-78
2023/07/26 10:02:06;;;;;;;2.22;0.75;;;;;;;15.59;100.00;100815.44;6279134;28;20072;-78
2023/07/26 10:05:11;;;;;;;2.08;1.00;;;;;;;15.66;100.00;100814.06;6279061;28;20099;-75
2023/07/26 10:08:13;;;;;;;3.15;1.15;;;;;;;15.45;100.00;100820.91;6279318;28;20061;-76
2023/07/26 10:11:15;;;;;;;1.60;1.02;;;;;;;15.42;100.00;100818.47;6287225;28;20049;-76
2023/07/26 10:14:20;;;;;;;2.70;0.90;;;;;;;15.44;100.00;100805.94;6274729;28;20361;-80
2023/07/26 10:17:22;;;;;;;2.67;1.08;;;;;;;15.40;100.00;100802.72;6278935;28;20053;-76
2023/07/26 10:20:24;;;;;;;2.28;1.10;;;;;;;15.63;100.00;100808.13;6279826;28;20056;-75
2023/07/26 10:23:26;;;;;;;2.88;1.02;;;;;;;15.82;100.00;100820.88;6278469;28;20181;-76
2023/07/26 10:26:30;;;;;;;2.97;1.10;;;;;;;15.85;100.00;100813.56;6270983;28;20045;-76
2023/07/26 10:29:33;;;;;;;2.03;1.30;;;;;;;15.83;100.00;100815.47;6278750;28;20041;-76
2023/07/26 10:32:39;;;;;;;2.45;1.25;;;;;;;15.82;100.00;100813.78;6278753;28;20441;-76
2023/07/26 10:35:42;;;;;;;0.95;0.70;;;;;;;15.63;100.00;100850.50;6286992;28;20052;-74
2023/07/26 10:38:48;;;;;;;2.28;0.77;;;;;;;15.00;100.00;100844.41;6278765;28;20060;-74
2023/07/26 10:41:50;;;;;;;0.73;0.52;;;;;;;14.66;100.00;100859.13;6279218;28;20342;-75
2023/07/26 10:44:55;;;;;;;0.60;0.52;;;;;;;14.30;100.00;100860.63;6278086;28;20048;-74
2023/07/26 10:47:56;;;;;;;1.42;0.60;;;;;;;13.93;100.00;100857.78;6278559;28;20063;-75
2023/07/26 10:50:58;;;;;;;1.23;0.60;;;;;;;13.73;100.00;100863.53;6277233;28;20350;-75
2023/07/26 10:54:00;;;;;;;1.27;1.08;;;;;;;13.68;100.00;100868.28;6277961;28;20049;-75
2023/07/26 10:57:19;;;;;;;0.80;0.70;;;;;;;13.64;100.00;100853.56;6278219;28;20045;-74
2023/07/26 11:00:34;;;;;;;1.05;0.52;;;;;;;13.80;100.00;100829.63;6278217;28;20130;-75
2023/07/26 11:03:42;;;;;;;0.77;0.77;;;;;;;13.83;100.00;100838.22;6277577;28;20053;-76
2023/07/26 11:06:52;;;;;;;2.67;0.80;;;;;;;13.98;100.00;100833.72;6273253;28;20040;-74
2023/07/26 11:10:16;;;;;;;1.77;0.80;;;;;;;14.06;100.00;100833.22;6270351;28;20045;-73
2023/07/26 11:13:19;;;;;;;1.77;1.10;;;;;;;14.15;100.00;100833.44;6276838;28;20492;-74
2023/07/26 11:16:23;;;;;;;1.17;0.75;;;;;;;14.23;100.00;100840.88;6277742;28;20049;-73
2023/07/26 11:19:24;;;;;;;1.38;1.00;;;;;;;14.26;100.00;100838.03;6277357;28;20052;-74
2023/07/26 11:22:26;;;;;;;1.50;0.88;;;;;;;14.36;100.00;100831.16;6277430;28;20457;-73
2023/07/26 11:25:28;;;;;;;2.97;1.30;;;;;;;14.66;100.00;100830.88;6277325;28;20059;-74
2023/07/26 11:28:33;;;;;;;3.22;1.20;;;;;;;15.07;100.00;100836.88;6277151;28;20437;-74
2023/07/26 11:31:36;;;;;;;1.20;0.95;;;;;;;15.07;100.00;100831.59;6277408;28;20049;-74
2023/07/26 11:34:38;;;;;;;2.72;1.30;;;;;;;14.98;100.00;100830.44;6273779;28;20052;-74
2023/07/26 11:37:39;;;;;;;1.60;1.00;;;;;;;14.89;100.00;100826.63;6272297;28;20050;-74
2023/07/26 11:40:42;;;;;;;3.25;1.15;;;;;;;15.00;100.00;100822.41;6277530;28;20036;-75
2023/07/26 11:43:44;;;;;;;1.92;1.10;;;;;;;15.00;100.00;100825.88;6276758;28;20130;-74
2023/07/26 11:46:47;;;;;;;3.38;1.30;;;;;;;14.91;100.00;100819.44;6277009;28;20049;-74
2023/07/26 11:49:52;;;;;;;1.88;1.17;;;;;;;14.89;100.00;100820.50;6277188;28;20052;-74
2023/07/26 11:53:04;;;;;;;1.95;1.08;;;;;;;15.05;100.00;100822.91;6273072;28;20045;-74
2023/07/26 11:56:06;;;;;;;2.30;1.42;;;;;;;15.45;100.00;100812.97;6273467;28;20081;-74
2023/07/26 11:59:08;;;;;;;2.85;1.48;;;;;;;15.56;100.00;100810.38;6268810;28;20064;-73
2023/07/26 12:02:11;;;;;;;2.00;1.25;;;;;;;15.78;100.00;100807.00;6274899;28;20045;-73
2023/07/26 12:05:19;;;;;;;3.40;1.75;;;;;;;15.71;100.00;100809.28;6261657;28;20049;-75
2023/07/26 12:08:21;;;;;;;3.13;1.55;;;;;;;15.54;100.00;100812.28;6275299;28;20088;-74
2023/07/26 12:11:24;;;;;;;4.47;1.85;;;;;;;15.54;100.00;100814.94;6271246;28;20071;-74
2023/07/26 12:14:25;;;;;;;9.43;1.98;;;;;;;15.95;100.00;100809.25;6267087;28;20060;-74
2023/07/26 12:17:28;;;;;;;3.25;1.67;;;;;;;16.56;100.00;100797.59;6270571;28;20051;-74
2023/07/26 12:20:31;;;;;;;6.35;1.95;;;;;;;16.83;100.00;100799.94;6272134;28;20049;-74
2023/07/26 12:23:51;;;;;;;5.75;1.42;;;;;;;17.29;100.00;100804.22;6275674;28;20068;-75
2023/07/26 12:26:52;;;;;;;2.92;1.73;;;;;;;17.42;100.00;100797.78;6275873;28;20056;-74
2023/07/26 12:29:54;;;;;;;2.05;1.45;;;;;;;17.23;100.00;100802.91;6275998;28;20056;-74
2023/07/26 12:33:10;;;;;;;2.42;1.40;;;;;;;17.06;100.00;100801.59;6275439;28;20060;-74
2023/07/26 12:36:14;;;;;;;2.28;1.63;;;;;;;17.01;100.00;100803.78;6275826;28;20111;-74
2023/07/26 12:39:17;;;;;;;3.47;1.52;;;;;;;16.86;100.00;100799.69;6275369;28;20438;-75
2023/07/26 12:42:19;;;;;;;5.57;1.67;;;;;;;16.80;100.00;100795.69;6281881;28;20433;-74
2023/07/26 12:45:21;;;;;;;4.13;1.23;;;;;;;16.83;100.00;100787.50;6274359;28;20053;-74
2023/07/26 12:48:24;;;;;;;3.75;1.70;;;;;;;17.01;100.00;100794.97;6271662;28;20053;-74
2023/07/26 12:51:27;;;;;;;2.83;1.55;;;;;;;17.09;100.00;100792.56;6275431;28;20049;-74
2023/07/26 12:54:29;;;;;;;4.22;1.67;;;;;;;17.01;100.00;100789.66;6275151;28;20045;-74
2023/07/26 12:57:30;;;;;;;2.30;1.42;;;;;;;16.83;100.00;100789.31;6274511;28;20064;-74
2023/07/26 13:00:32;;;;;;;2.42;1.30;;;;;;;16.78;100.00;100802.94;6274659;28;20071;-74
2023/07/26 13:03:35;;;;;;;2.25;1.45;;;;;;;16.65;100.00;100800.38;6274764;28;20049;-74
2023/07/26 13:06:37;;;;;;;2.88;1.48;;;;;;;16.65;100.00;100804.84;6275115;28;20358;-74
2023/07/26 13:09:38;;;;;;;3.35;1.40;;;;;;;16.64;100.00;100801.34;6275179;28;20056;-74
2023/07/26 13:12:39;;;;;;;2.03;1.60;;;;;;;16.69;100.00;100803.63;6274487;28;20053;-74
2023/07/26 13:15:41;;;;;;;2.15;1.30;;;;;;;17.15;100.00;100810.66;6275033;28;20354;-74
2023/07/26 13:18:43;;;;;;;3.35;1.60;;;;;;;17.73;100.00;100800.59;6275287;28;20056;-74
2023/07/26 13:21:45;;;;;;;1.63;1.45;;;;;;;18.13;100.00;100790.19;6273489;28;20048;-74
2023/07/26 13:24:46;;;;;;;2.75;1.50;;;;;;;18.27;100.00;100780.19;6271957;28;20056;-74
2023/07/26 13:27:48;;;;;;;1.98;1.30;;;;;;;18.58;100.00;100789.91;6274720;28;20437;-74
2023/07/26 13:30:49;;;;;;;1.65;1.20;;;;;;;18.78;100.00;100788.19;6274878;28;20045;-74
2023/07/26 13:33:52;;;;;;;2.30;1.17;;;;;;;18.75;100.00;100791.09;6274359;28;20053;-74
2023/07/26 13:36:55;;;;;;;2.25;1.38;;;;;;;18.58;100.00;100786.41;6274701;28;20346;-73
2023/07/26 13:39:57;;;;;;;1.17;0.88;;;;;;;18.57;100.00;100779.34;6273067;28;20052;-74
2023/07/26 13:42:59;;;;;;;2.13;1.02;;;;;;;18.92;100.00;100782.50;6278475;28;20357;-74
2023/07/26 13:46:01;;;;;;;1.88;1.20;;;;;;;19.11;100.00;100784.38;6275016;28;20052;-74
2023/07/26 13:49:04;;;;;;;3.50;0.90;;;;;;;18.93;100.00;100776.19;6274803;28;20056;-74
2023/07/26 13:52:06;;;;;;;2.03;1.00;;;;;;;19.09;100.00;100778.34;6274165;28;20048;-74
2023/07/26 13:55:08;;;;;;;1.20;0.98;;;;;;;19.11;100.00;100783.53;6274539;28;20253;-74
2023/07/26 13:58:09;;;;;;;3.78;1.30;;;;;;;19.27;100.00;100787.38;6272866;28;20041;-74